createdAt,value
2023-05-17T00:01:49.222Z,13.20
2023-05-17T00:04:17.585Z,13.10
2023-05-17T00:06:47.095Z,13.20
2023-05-17T00:09:15.388Z,13.20
2023-05-17T00:11:43.539Z,13.20
2023-05-17T00:14:11.778Z,13.10
2023-05-17T00:16:40.032Z,13.10
2023-05-17T00:19:09.408Z,13.10
2023-05-17T00:21:38.081Z,13.10
2023-05-17T00:24:09.199Z,13.10
2023-05-17T00:26:37.478Z,13.10
2023-05-17T00:29:05.926Z,13.10
2023-05-17T00:31:34.120Z,13.00
2023-05-17T00:34:02.360Z,12.90
2023-05-17T00:36:30.933Z,12.90
2023-05-17T00:38:59.066Z,12.90
2023-05-17T00:41:28.903Z,12.80
2023-05-17T00:43:57.109Z,12.80
2023-05-17T00:46:25.287Z,12.90
2023-05-17T00:48:53.608Z,12.80
2023-05-17T00:51:22.596Z,12.90
2023-05-17T00:53:50.961Z,12.80
2023-05-17T00:56:19.277Z,12.80
2023-05-17T00:58:49.322Z,12.70
2023-05-17T01:01:18.261Z,12.70
2023-05-17T01:03:47.042Z,12.80
2023-05-17T01:06:15.523Z,12.70
2023-05-17T01:08:44.557Z,12.80
2023-05-17T01:11:30.977Z,12.80
2023-05-17T01:14:10.654Z,12.80
2023-05-17T01:16:45.779Z,12.70
2023-05-17T01:19:26.395Z,12.70
2023-05-17T01:22:07.089Z,12.70
2023-05-17T01:24:51.396Z,12.70
2023-05-17T01:27:23.048Z,12.60
2023-05-17T01:29:53.026Z,12.60
2023-05-17T01:32:21.610Z,12.60
2023-05-17T01:34:53.461Z,12.50
2023-05-17T01:37:21.639Z,12.50
2023-05-17T01:39:49.867Z,12.50
2023-05-17T01:42:25.308Z,12.50
2023-05-17T01:45:01.583Z,12.50
2023-05-17T01:47:40.540Z,12.40
2023-05-17T01:50:11.303Z,12.40
2023-05-17T01:52:45.571Z,12.40
2023-05-17T01:55:20.845Z,12.40
2023-05-17T01:57:55.051Z,12.30
2023-05-17T02:00:25.702Z,12.40
2023-05-17T02:02:53.932Z,12.30
2023-05-17T02:05:22.348Z,12.30
2023-05-17T02:07:50.522Z,12.40
2023-05-17T02:10:20.165Z,12.40
2023-05-17T02:12:48.362Z,12.30
2023-05-17T02:15:17.923Z,12.40
2023-05-17T02:17:46.544Z,12.50
2023-05-17T02:20:16.003Z,12.40
2023-05-17T02:22:44.234Z,12.40
2023-05-17T02:25:12.524Z,12.50
2023-05-17T02:27:41.599Z,12.50
2023-05-17T02:30:10.416Z,12.50
2023-05-17T02:32:39.974Z,12.50
2023-05-17T02:35:09.349Z,12.50
2023-05-17T02:37:37.541Z,12.50
2023-05-17T02:40:09.800Z,12.50
2023-05-17T02:42:38.401Z,12.50
2023-05-17T02:45:07.498Z,12.50
2023-05-17T02:47:35.796Z,12.50
2023-05-17T02:50:06.342Z,12.50
2023-05-17T02:52:34.517Z,12.40
2023-05-17T02:55:03.524Z,12.40
2023-05-17T02:57:31.848Z,12.40
2023-05-17T03:00:00.071Z,12.50
2023-05-17T03:02:29.281Z,12.50
2023-05-17T03:04:57.627Z,12.30
2023-05-17T03:07:27.137Z,12.30
2023-05-17T03:09:55.763Z,12.30
2023-05-17T03:12:24.610Z,12.30
2023-05-17T03:14:52.927Z,12.40
2023-05-17T03:17:22.414Z,12.30
2023-05-17T03:19:51.350Z,12.30
2023-05-17T03:22:19.845Z,12.20
2023-05-17T03:24:49.375Z,12.30
2023-05-17T03:27:17.800Z,12.30
2023-05-17T03:29:46.749Z,12.30
2023-05-17T03:32:15.245Z,12.20
2023-05-17T03:34:43.364Z,12.30
2023-05-17T03:37:11.525Z,12.10
2023-05-17T03:39:39.807Z,12.20
2023-05-17T03:42:09.388Z,12.30
2023-05-17T03:44:37.568Z,12.30
2023-05-17T03:47:06.362Z,12.20
2023-05-17T03:49:34.958Z,12.10
2023-05-17T03:52:03.503Z,12.10
2023-05-17T03:54:31.679Z,12.20
2023-05-17T03:56:59.884Z,12.20
2023-05-17T03:59:29.402Z,12.20
2023-05-17T04:01:57.651Z,12.20
2023-05-17T04:04:26.909Z,12.20
2023-05-17T04:06:55.456Z,12.30
2023-05-17T04:09:23.654Z,12.20
2023-05-17T04:11:51.782Z,12.10
2023-05-17T04:14:20.099Z,12.10
2023-05-17T04:16:49.627Z,12.20
2023-05-17T04:19:18.085Z,12.20
2023-05-17T04:21:46.487Z,12.10
2023-05-17T04:24:14.686Z,12.10
2023-05-17T04:26:42.937Z,12.20
2023-05-17T04:29:11.510Z,12.20
2023-05-17T04:31:39.655Z,12.20
2023-05-17T04:34:09.515Z,12.20
2023-05-17T04:36:37.801Z,12.20
2023-05-17T04:39:07.225Z,12.20
2023-05-17T04:41:35.720Z,12.20
2023-05-17T04:44:07.717Z,12.30
2023-05-17T04:46:37.403Z,12.30
2023-05-17T04:49:05.986Z,12.30
2023-05-17T04:51:35.649Z,12.30
2023-05-17T04:54:06.956Z,12.30
2023-05-17T04:56:36.388Z,12.30
2023-05-17T04:59:07.245Z,12.30
2023-05-17T05:01:36.155Z,12.40
2023-05-17T05:04:06.969Z,12.40
2023-05-17T05:06:41.741Z,12.40
2023-05-17T05:09:10.229Z,12.40
2023-05-17T05:11:40.016Z,12.50
2023-05-17T05:14:08.506Z,12.50
2023-05-17T05:16:37.270Z,12.60
2023-05-17T05:19:05.785Z,12.60
2023-05-17T05:21:34.605Z,12.60
2023-05-17T05:24:04.733Z,12.60
2023-05-17T05:26:32.986Z,12.70
2023-05-17T05:29:03.229Z,12.80
2023-05-17T05:31:32.303Z,12.80
2023-05-17T05:34:03.277Z,12.80
2023-05-17T05:36:31.831Z,12.80
2023-05-17T05:39:01.563Z,12.80
2023-05-17T05:41:33.227Z,12.80
2023-05-17T05:44:01.408Z,12.90
2023-05-17T05:46:30.138Z,12.90
2023-05-17T05:48:59.620Z,13.00
2023-05-17T05:51:28.915Z,12.90
2023-05-17T05:53:57.277Z,13.00
2023-05-17T05:56:27.342Z,13.00
2023-05-17T05:58:58.471Z,13.00
2023-05-17T06:01:28.951Z,13.10
2023-05-17T06:03:57.396Z,13.00
2023-05-17T06:06:25.600Z,13.00
2023-05-17T06:08:53.888Z,13.00
2023-05-17T06:11:23.784Z,13.10
2023-05-17T06:13:51.914Z,13.10
2023-05-17T06:16:21.440Z,13.20
2023-05-17T06:18:51.404Z,13.20
2023-05-17T06:21:19.992Z,13.10
2023-05-17T06:23:48.868Z,13.10
2023-05-17T06:26:17.186Z,13.10
2023-05-17T06:28:45.529Z,13.30
2023-05-17T06:31:13.880Z,13.30
2023-05-17T06:33:43.397Z,13.30
2023-05-17T06:36:11.669Z,13.40
2023-05-17T06:38:39.822Z,13.40
2023-05-17T06:41:07.982Z,13.40
2023-05-17T06:43:37.809Z,13.40
2023-05-17T06:46:06.209Z,13.40
2023-05-17T06:48:34.473Z,13.40
2023-05-17T06:51:04.363Z,13.40
2023-05-17T06:53:32.613Z,13.30
2023-05-17T06:56:00.876Z,13.30
2023-05-17T06:58:29.096Z,13.50
2023-05-17T07:00:57.332Z,13.50
2023-05-17T07:03:25.605Z,13.50
2023-05-17T07:05:53.856Z,13.50
2023-05-17T07:08:23.355Z,13.50
2023-05-17T07:10:53.047Z,13.60
2023-05-17T07:13:21.352Z,13.60
2023-05-17T07:15:49.748Z,13.60
2023-05-17T07:18:17.954Z,13.60
2023-05-17T07:20:46.143Z,13.60
2023-05-17T07:23:14.352Z,13.60
2023-05-17T07:25:43.830Z,13.60
2023-05-17T07:28:12.002Z,13.60
2023-05-17T07:30:40.261Z,13.60
2023-05-17T07:33:08.502Z,13.60
2023-05-17T07:35:36.861Z,13.60
2023-05-17T07:38:05.069Z,13.70
2023-05-17T07:40:33.253Z,13.70
2023-05-17T07:43:02.796Z,13.70
2023-05-17T07:45:31.153Z,13.90
2023-05-17T07:47:59.574Z,13.90
2023-05-17T07:50:28.332Z,13.90
2023-05-17T07:52:56.483Z,13.90
2023-05-17T07:55:24.695Z,13.90
2023-05-17T07:57:52.970Z,13.90
2023-05-17T08:00:24.413Z,13.90
2023-05-17T08:02:52.759Z,13.80
2023-05-17T08:05:21.102Z,14.00
2023-05-17T08:07:49.285Z,14.10
2023-05-17T08:10:17.624Z,14.20
2023-05-17T08:12:46.150Z,14.10
2023-05-17T08:15:14.361Z,14.10
2023-05-17T08:17:43.972Z,14.10
2023-05-17T08:20:12.816Z,14.10
2023-05-17T08:22:41.429Z,14.10
2023-05-17T08:25:10.059Z,14.10
2023-05-17T08:27:38.556Z,14.10
2023-05-17T08:30:11.916Z,14.20
2023-05-17T08:32:47.204Z,14.20
2023-05-17T08:35:15.579Z,14.20
2023-05-17T08:37:44.040Z,14.20
2023-05-17T08:40:12.630Z,14.20
2023-05-17T08:42:41.048Z,14.10
2023-05-17T08:45:10.496Z,14.10
2023-05-17T08:47:40.990Z,14.10
2023-05-17T08:50:12.782Z,14.10
2023-05-17T08:52:42.823Z,14.00
2023-05-17T08:55:11.564Z,14.00
2023-05-17T08:57:40.440Z,14.00
2023-05-17T09:00:12.384Z,14.10
2023-05-17T09:02:41.018Z,14.30
2023-05-17T09:05:11.459Z,14.50
2023-05-17T09:07:39.832Z,14.60
2023-05-17T09:10:09.483Z,14.60
2023-05-17T09:12:37.876Z,14.60
2023-05-17T09:15:16.763Z,14.60
2023-05-17T09:17:51.732Z,14.50
2023-05-17T09:20:25.645Z,14.50
2023-05-17T09:22:53.927Z,14.40
2023-05-17T09:25:22.489Z,14.40
2023-05-17T09:27:53.648Z,14.40
2023-05-17T09:30:28.616Z,14.50
2023-05-17T09:32:57.715Z,14.50
2023-05-17T09:35:31.617Z,14.60
2023-05-17T09:38:07.458Z,14.60
2023-05-17T09:40:38.890Z,14.60
2023-05-17T09:43:07.885Z,14.60
2023-05-17T09:45:37.003Z,14.50
2023-05-17T09:48:15.473Z,14.40
2023-05-17T09:50:49.684Z,14.40
2023-05-17T09:53:28.302Z,14.30
2023-05-17T09:55:58.564Z,14.40
2023-05-17T09:58:28.842Z,14.60
2023-05-17T10:01:00.596Z,14.70
2023-05-17T10:03:33.171Z,14.70
2023-05-17T10:08:42.303Z,14.70
2023-05-17T10:11:12.122Z,14.70
2023-05-17T10:13:48.843Z,14.60
2023-05-17T10:16:17.719Z,14.70
2023-05-17T10:18:46.414Z,14.70
2023-05-17T10:21:16.440Z,14.70
2023-05-17T10:23:46.716Z,14.80
2023-05-17T10:26:16.174Z,14.80
2023-05-17T10:28:46.314Z,14.90
2023-05-17T10:31:14.511Z,15.00
2023-05-17T10:33:44.383Z,15.10
2023-05-17T10:36:17.994Z,15.20
2023-05-17T10:38:47.263Z,15.20
2023-05-17T10:41:17.984Z,15.20
2023-05-17T10:43:47.334Z,15.20
2023-05-17T10:46:17.900Z,15.20
2023-05-17T10:48:46.883Z,15.10
2023-05-17T10:51:18.815Z,15.10
2023-05-17T10:54:05.481Z,15.00
2023-05-17T10:56:34.358Z,15.00
2023-05-17T10:59:23.202Z,15.00
2023-05-17T11:02:03.375Z,15.00
2023-05-17T11:04:36.266Z,15.10
2023-05-17T11:07:27.284Z,15.10
2023-05-17T11:09:57.336Z,15.10
2023-05-17T11:12:35.472Z,15.10
2023-05-17T11:15:09.128Z,15.30
2023-05-17T11:17:50.266Z,15.50
2023-05-17T11:20:36.006Z,15.60
2023-05-17T11:23:08.784Z,15.70
2023-05-17T11:25:40.909Z,15.80
2023-05-17T11:28:10.330Z,15.80
2023-05-17T11:30:43.620Z,15.90
2023-05-17T11:33:21.258Z,15.80
2023-05-17T11:35:57.919Z,15.80
2023-05-17T11:38:32.548Z,15.70
2023-05-17T11:41:26.617Z,15.80
2023-05-17T11:43:55.957Z,15.70
2023-05-17T11:46:25.067Z,15.70
2023-05-17T11:48:54.356Z,15.60
2023-05-17T11:51:25.225Z,15.90
2023-05-17T11:53:56.619Z,16.00
2023-05-17T11:56:35.705Z,16.10
2023-05-17T11:59:10.701Z,16.00
2023-05-17T12:01:47.401Z,15.90
2023-05-17T12:04:16.144Z,15.80
2023-05-17T12:06:45.770Z,15.80
2023-05-17T12:09:17.710Z,15.80
2023-05-17T12:11:47.768Z,15.80
2023-05-17T12:14:17.498Z,15.90
2023-05-17T12:16:48.088Z,16.10
2023-05-17T12:19:20.162Z,16.30
2023-05-17T12:21:48.810Z,16.40
2023-05-17T12:24:18.850Z,16.30
2023-05-17T12:26:48.439Z,16.10
2023-05-17T12:29:22.809Z,16.00
2023-05-17T12:31:53.854Z,15.90
2023-05-17T12:34:23.296Z,16.10
2023-05-17T12:36:52.704Z,16.30
2023-05-17T12:39:24.614Z,16.40
2023-05-17T12:41:53.735Z,16.40
2023-05-17T12:44:22.221Z,16.40
2023-05-17T12:46:53.792Z,16.40
2023-05-17T12:49:23.143Z,16.20
2023-05-17T12:51:51.526Z,16.40
2023-05-17T12:54:30.767Z,16.50
2023-05-17T12:56:58.979Z,16.50
2023-05-17T12:59:29.090Z,16.60
2023-05-17T13:01:59.169Z,16.50
2023-05-17T13:04:32.993Z,16.40
2023-05-17T13:07:03.178Z,16.30
2023-05-17T13:09:34.417Z,16.40
2023-05-17T13:12:06.828Z,16.30
2023-05-17T13:14:37.124Z,16.40
2023-05-17T13:17:06.514Z,16.30
2023-05-17T13:19:36.042Z,16.20
2023-05-17T13:22:04.690Z,16.10
2023-05-17T13:24:36.157Z,16.10
2023-05-17T13:27:05.359Z,16.10
2023-05-17T13:29:39.420Z,16.10
2023-05-17T13:32:12.499Z,16.10
2023-05-17T13:34:41.531Z,16.20
2023-05-17T13:37:12.466Z,16.20
2023-05-17T13:39:43.028Z,16.20
2023-05-17T13:42:11.624Z,16.20
2023-05-17T13:44:40.257Z,16.20
2023-05-17T13:47:08.650Z,16.20
2023-05-17T13:49:37.251Z,16.20
2023-05-17T13:52:08.574Z,16.20
2023-05-17T13:54:37.121Z,16.20
2023-05-17T13:57:07.758Z,16.20
2023-05-17T13:59:36.179Z,16.30
2023-05-17T14:02:04.966Z,16.20
2023-05-17T14:04:33.528Z,16.10
2023-05-17T14:07:01.882Z,16.10
2023-05-17T14:09:32.901Z,16.10
2023-05-17T14:12:01.503Z,16.20
2023-05-17T14:14:31.236Z,16.10
2023-05-17T14:17:01.305Z,16.20
2023-05-17T14:19:29.787Z,16.10
2023-05-17T14:21:57.983Z,16.10
2023-05-17T14:24:26.194Z,16.10
2023-05-17T14:26:54.336Z,16.10
2023-05-17T14:29:22.500Z,16.20
2023-05-17T14:31:52.134Z,16.10
2023-05-17T14:34:20.460Z,16.20
2023-05-17T14:36:48.706Z,16.20
2023-05-17T14:39:17.550Z,16.20
2023-05-17T14:41:45.734Z,16.20
2023-05-17T14:44:13.993Z,16.20
2023-05-17T14:46:42.184Z,16.10
2023-05-17T14:49:11.936Z,16.20
2023-05-17T14:51:40.195Z,16.10
2023-05-17T14:54:08.442Z,16.10
2023-05-17T14:56:36.590Z,16.10
2023-05-17T14:59:04.731Z,16.10
2023-05-17T15:01:32.988Z,16.20
2023-05-17T15:04:01.187Z,16.10
2023-05-17T15:06:32.348Z,16.20
2023-05-17T15:09:02.210Z,16.10
2023-05-17T15:11:30.469Z,16.20
2023-05-17T15:13:58.978Z,16.20
2023-05-17T15:16:27.235Z,16.20
2023-05-17T15:18:57.530Z,16.20
2023-05-17T15:21:26.219Z,16.20
2023-05-17T15:23:55.935Z,16.20
2023-05-17T15:26:24.186Z,16.20
2023-05-17T15:28:52.395Z,16.20
2023-05-17T15:31:20.659Z,16.20
2023-05-17T15:33:48.896Z,16.20
2023-05-17T15:36:17.254Z,16.30
2023-05-17T15:38:45.539Z,16.30
2023-05-17T15:41:16.756Z,16.30
2023-05-17T15:43:44.936Z,16.30
2023-05-17T15:46:13.198Z,16.30
2023-05-17T15:48:41.537Z,16.40
2023-05-17T15:51:10.140Z,16.30
2023-05-17T15:53:38.486Z,16.30
2023-05-17T15:56:07.274Z,16.30
2023-05-17T15:58:36.930Z,16.30
2023-05-17T16:01:05.812Z,16.30
2023-05-17T16:03:34.143Z,16.30
2023-05-17T16:06:04.226Z,16.30
2023-05-17T16:08:32.652Z,16.30
2023-05-17T16:11:02.410Z,16.30
2023-05-17T16:13:31.104Z,16.20
2023-05-17T16:16:01.712Z,16.30
2023-05-17T16:18:31.033Z,16.20
2023-05-17T16:21:01.071Z,16.20
2023-05-17T16:23:29.631Z,16.20
2023-05-17T16:25:57.997Z,16.20
2023-05-17T16:28:26.368Z,16.20
2023-05-17T16:30:54.576Z,16.20
2023-05-17T16:33:24.252Z,16.20
2023-05-17T16:35:52.480Z,16.20
2023-05-17T16:38:20.985Z,16.20
2023-05-17T16:40:49.246Z,16.10
2023-05-17T16:43:17.438Z,16.10
2023-05-17T16:45:46.398Z,16.20
2023-05-17T16:48:15.105Z,16.10
2023-05-17T16:50:44.784Z,16.10
2023-05-17T16:53:13.260Z,16.10
2023-05-17T16:55:42.104Z,16.10
2023-05-17T16:58:10.359Z,16.10
2023-05-17T17:00:38.731Z,16.10
2023-05-17T17:03:09.537Z,16.10
2023-05-17T17:05:38.534Z,16.10
2023-05-17T17:08:08.060Z,16.00
2023-05-17T17:10:36.588Z,16.10
2023-05-17T17:13:04.953Z,16.00
2023-05-17T17:15:33.157Z,16.00
2023-05-17T17:18:01.769Z,16.00
2023-05-17T17:20:30.273Z,15.90
2023-05-17T17:22:58.752Z,15.90
2023-05-17T17:25:28.340Z,15.90
2023-05-17T17:27:56.459Z,15.90
2023-05-17T17:30:24.633Z,15.80
2023-05-17T17:32:52.942Z,15.80
2023-05-17T17:35:21.278Z,15.80
2023-05-17T17:37:49.444Z,15.80
2023-05-17T17:40:18.324Z,15.80
2023-05-17T17:42:47.814Z,15.80
2023-05-17T17:45:15.997Z,15.70
2023-05-17T17:47:44.403Z,15.70
2023-05-17T17:50:12.591Z,15.70
2023-05-17T17:52:40.722Z,15.70
2023-05-17T17:55:12.943Z,15.70
2023-05-17T17:57:41.759Z,15.60
2023-05-17T18:00:12.998Z,15.60
2023-05-17T18:02:41.213Z,15.60
2023-05-17T18:05:10.458Z,15.50
2023-05-17T18:07:39.021Z,15.50
2023-05-17T18:10:08.233Z,15.50
2023-05-17T18:12:36.410Z,15.50
2023-05-17T18:15:04.883Z,15.50
2023-05-17T18:17:34.561Z,15.50
2023-05-17T18:20:02.898Z,15.40
2023-05-17T18:22:31.112Z,15.40
2023-05-17T18:24:59.471Z,15.30
2023-05-17T18:27:27.647Z,15.30
2023-05-17T18:29:55.786Z,15.30
2023-05-17T18:32:24.036Z,15.30
2023-05-17T18:34:54.927Z,15.30
2023-05-17T18:37:23.163Z,15.30
2023-05-17T18:39:51.434Z,15.20
2023-05-17T18:42:19.585Z,15.10
2023-05-17T18:44:48.029Z,15.10
2023-05-17T18:47:16.305Z,15.10
2023-05-17T18:49:46.580Z,15.10
2023-05-17T18:52:16.203Z,15.00
2023-05-17T18:54:44.475Z,15.00
2023-05-17T18:57:14.045Z,15.00
2023-05-17T18:59:42.356Z,15.00
2023-05-17T19:02:10.558Z,14.90
2023-05-17T19:04:38.832Z,14.90
2023-05-17T19:07:07.051Z,14.90
2023-05-17T19:09:36.801Z,14.80
2023-05-17T19:12:05.793Z,14.80
2023-05-17T19:14:33.954Z,14.80
2023-05-17T19:17:02.140Z,14.80
2023-05-17T19:19:31.163Z,14.70
2023-05-17T19:22:00.640Z,14.60
2023-05-17T19:24:29.283Z,14.60
2023-05-17T19:26:58.839Z,14.50
2023-05-17T19:29:28.307Z,14.50
2023-05-17T19:31:56.535Z,14.50
2023-05-17T19:34:24.737Z,14.40
2023-05-17T19:36:52.914Z,14.40
2023-05-17T19:39:21.329Z,14.30
2023-05-17T19:41:49.561Z,14.40
2023-05-17T19:44:19.067Z,14.40
2023-05-17T19:46:47.266Z,14.40
2023-05-17T19:49:16.754Z,14.40
2023-05-17T19:51:46.151Z,14.40
2023-05-17T19:54:14.389Z,14.30
2023-05-17T19:56:42.571Z,14.30
2023-05-17T19:59:10.733Z,14.30
2023-05-17T20:01:40.233Z,14.30
2023-05-17T20:04:10.309Z,14.20
2023-05-17T20:06:38.619Z,14.10
2023-05-17T20:09:06.757Z,14.20
2023-05-17T20:11:34.938Z,14.20
2023-05-17T20:14:03.065Z,14.20
2023-05-17T20:16:31.370Z,14.10
2023-05-17T20:19:01.351Z,14.10
2023-05-17T20:21:31.344Z,14.10
2023-05-17T20:24:03.724Z,14.10
2023-05-17T20:26:36.367Z,14.10
2023-05-17T20:29:06.024Z,14.00
2023-05-17T20:31:34.383Z,14.00
2023-05-17T20:34:04.493Z,13.90
2023-05-17T20:36:32.987Z,14.00
2023-05-17T20:39:01.198Z,14.00
2023-05-17T20:41:29.328Z,13.90
2023-05-17T20:43:57.484Z,13.90
2023-05-17T20:46:25.805Z,13.90
2023-05-17T20:48:55.880Z,13.90
2023-05-17T20:51:25.996Z,13.80
2023-05-17T20:53:54.496Z,13.80
2023-05-17T20:56:22.732Z,13.80
2023-05-17T20:58:50.899Z,13.70
2023-05-17T21:01:19.075Z,13.80
2023-05-17T21:03:47.942Z,13.80
2023-05-17T21:06:16.306Z,13.70
2023-05-17T21:08:46.090Z,13.80
2023-05-17T21:11:18.810Z,13.80
2023-05-17T21:13:46.980Z,13.80
2023-05-17T21:16:15.304Z,13.70
2023-05-17T21:18:45.047Z,13.80
2023-05-17T21:21:13.581Z,13.70
2023-05-17T21:23:41.757Z,13.80
2023-05-17T21:26:11.259Z,13.80
2023-05-17T21:28:39.392Z,13.70
2023-05-17T21:31:07.731Z,13.70
2023-05-17T21:33:35.935Z,13.70
2023-05-17T21:36:04.275Z,13.70
2023-05-17T21:38:32.446Z,13.70
2023-05-17T21:41:00.622Z,13.70
2023-05-17T21:43:30.193Z,13.60
2023-05-17T21:45:58.312Z,13.70
2023-05-17T21:48:26.536Z,13.70
2023-05-17T21:50:54.751Z,13.70
2023-05-17T21:53:22.993Z,13.60
2023-05-17T21:56:02.080Z,13.60
2023-05-17T21:58:33.139Z,13.60
2023-05-17T22:01:01.794Z,13.50
2023-05-17T22:03:30.179Z,13.50
2023-05-17T22:05:58.366Z,13.50
2023-05-17T22:08:26.600Z,13.60
2023-05-17T22:10:55.628Z,13.60
2023-05-17T22:13:26.256Z,13.60
2023-05-17T22:15:57.412Z,13.60
2023-05-17T22:18:26.854Z,13.60
2023-05-17T22:20:59.134Z,13.50
2023-05-17T22:23:28.262Z,13.50
2023-05-17T22:26:00.144Z,13.50
2023-05-17T22:28:28.434Z,13.50
2023-05-17T22:30:58.110Z,13.50
2023-05-17T22:33:29.597Z,13.40
2023-05-17T22:35:58.702Z,13.50
2023-05-17T22:38:26.920Z,13.50
2023-05-17T22:40:55.526Z,13.40
2023-05-17T22:43:25.823Z,13.40
2023-05-17T22:45:54.003Z,13.40
2023-05-17T22:48:23.571Z,13.40
2023-05-17T22:50:54.510Z,13.40
2023-05-17T22:53:22.713Z,13.30
2023-05-17T22:55:51.122Z,13.30
2023-05-17T22:58:19.689Z,13.30
2023-05-17T23:00:50.872Z,13.30
2023-05-17T23:03:19.454Z,13.30
2023-05-17T23:05:49.440Z,13.30
2023-05-17T23:08:17.554Z,13.20
2023-05-17T23:10:45.954Z,13.20
2023-05-17T23:13:14.528Z,13.20
2023-05-17T23:15:46.188Z,13.20
2023-05-17T23:18:14.349Z,13.20
2023-05-17T23:20:43.055Z,13.20
2023-05-17T23:23:13.348Z,13.20
2023-05-17T23:25:41.542Z,13.20
2023-05-17T23:28:09.747Z,13.10
2023-05-17T23:30:38.460Z,13.00
2023-05-17T23:33:06.676Z,13.00
2023-05-17T23:35:34.917Z,13.00
2023-05-17T23:38:04.139Z,13.00
2023-05-17T23:40:34.388Z,12.90
2023-05-17T23:43:02.631Z,12.90
2023-05-17T23:45:31.507Z,12.90
2023-05-17T23:48:00.351Z,12.80
2023-05-17T23:50:28.858Z,12.90
2023-05-17T23:52:57.092Z,12.80
2023-05-17T23:55:25.304Z,12.80
2023-05-17T23:57:54.821Z,12.80
